Southern Tiare — E5U2082 — position and weather

sailwx.info

Track history (hours):
 
Tides and Currents Weather Stations Pressure Air Temp Water Temp Dewpoint Dewpoint Depression Visibility Wind Speed Wind Dir Waves Ship Positions

Southern Tiare

Last reported at 2015-Feb-20 07:04 UTC. Time now 2015-Mar-02 16:36 UTC.
Position S 36°14' E 174°56'.
Warning: this ship's position is 10 days out of date.

Length 67 m; draft 3.3 m.

Type: Cargo ship. MMSI: 518132000.

Date/timePositionNaut miles runAvg speedWind from/ knotsBaromVisibWave heightAir tempDewpointWater temp
2015-Feb-20 07:04S 36°14' E 174°56'5 9.4
2015-Feb-20 06:33S 36°18' E 174°57'9 9.2
2015-Feb-20 05:33S 36°28' E 174°57'10 9.2
2015-Feb-20 04:29S 36°37' E 174°57'9 9.5
2015-Feb-20 03:33S 36°45' E 174°50'7 6.4
2015-Feb-20 02:31S 36°51' E 174°47'0 0.0
2015-Feb-20 01:31S 36°51' E 174°47'0 0.0
2015-Feb-20 00:31S 36°51' E 174°47'0 0.0
2015-Feb-19 23:31S 36°51' E 174°47'0 0.0
2015-Feb-19 22:10S 36°51' E 174°47'0 0.0
2015-Feb-19 20:25S 36°51' E 174°47'0 0.0
2015-Feb-19 19:31S 36°51' E 174°47'0 0.0
2015-Feb-19 18:25S 36°51' E 174°47'0 0.0
2015-Feb-19 15:31S 36°51' E 174°47'0 0.0
2015-Feb-18 14:16S 36°51' E 174°47'0 0.0
2015-Feb-18 12:31S 36°51' E 174°47'0 0.0
2015-Feb-18 10:04S 36°51' E 174°47'0 0.0
2015-Feb-18 08:31S 36°51' E 174°47'3 0.2
2015-Feb-17 17:33S 36°47' E 174°49'7 7.2
2015-Feb-17 16:33S 36°41' E 174°54'6 5.6
2015-Feb-17 15:33S 36°37' E 174°58'  
Track history (hours):
 
Tides and Currents Weather Stations Pressure Air Temp Water Temp Dewpoint Dewpoint Depression Visibility Wind Speed Wind Dir Waves Ship Positions

Southern Tiare

Last reported at 2015-Feb-20 07:04 UTC. Time now 2015-Mar-02 16:36 UTC.
Position S 36°14' E 174°56'.
Warning: this ship's position is 10 days out of date.

Length 67 m; draft 3.3 m.

Type: Cargo ship. MMSI: 518132000.

Date/timePositionNaut miles runAvg speedWind from/ knotsBaromVisibWave heightAir tempDewpointWater temp
2015-Feb-20 07:04S 36°14' E 174°56'5 9.4
2015-Feb-20 06:33S 36°18' E 174°57'9 9.2
2015-Feb-20 05:33S 36°28' E 174°57'10 9.2
2015-Feb-20 04:29S 36°37' E 174°57'9 9.5
2015-Feb-20 03:33S 36°45' E 174°50'7 6.4
2015-Feb-20 02:31S 36°51' E 174°47'0 0.0
2015-Feb-20 01:31S 36°51' E 174°47'0 0.0
2015-Feb-20 00:31S 36°51' E 174°47'0 0.0
2015-Feb-19 23:31S 36°51' E 174°47'0 0.0
2015-Feb-19 22:10S 36°51' E 174°47'0 0.0
2015-Feb-19 20:25S 36°51' E 174°47'0 0.0
2015-Feb-19 19:31S 36°51' E 174°47'0 0.0
2015-Feb-19 18:25S 36°51' E 174°47'0 0.0
2015-Feb-19 15:31S 36°51' E 174°47'0 0.0
2015-Feb-18 14:16S 36°51' E 174°47'0 0.0
2015-Feb-18 12:31S 36°51' E 174°47'0 0.0
2015-Feb-18 10:04S 36°51' E 174°47'0 0.0
2015-Feb-18 08:31S 36°51' E 174°47'3 0.2
2015-Feb-17 17:33S 36°47' E 174°49'7 7.2
2015-Feb-17 16:33S 36°41' E 174°54'6 5.6
2015-Feb-17 15:33S 36°37' E 174°58'  

Dump ship's entire track history